createdAt,value
2022-08-26T04:59:47.465Z,816.00
2022-08-26T05:00:51.866Z,840.00
2022-08-26T05:01:56.460Z,844.00
2022-08-26T05:03:00.704Z,908.00
2022-08-26T05:04:05.193Z,968.00
2022-08-26T05:05:09.512Z,920.00
2022-08-26T05:06:13.895Z,984.00
2022-08-26T05:07:18.317Z,1012.00
2022-08-26T05:08:22.706Z,1048.00
2022-08-26T05:09:27.088Z,1096.00
2022-08-26T05:10:31.469Z,1080.00
2022-08-26T05:11:35.866Z,1068.00
2022-08-26T05:12:40.274Z,1148.00
2022-08-26T05:13:44.654Z,1200.00
2022-08-26T05:14:49.026Z,1244.00
2022-08-26T05:15:53.408Z,1276.00
2022-08-26T05:16:57.806Z,1264.00
2022-08-26T05:18:02.196Z,1356.00
2022-08-26T05:19:06.566Z,1444.00
2022-08-26T05:20:11.011Z,1464.00
2022-08-26T05:21:15.367Z,1520.00
2022-08-26T05:22:19.768Z,1544.00
2022-08-26T05:23:24.140Z,1512.00
2022-08-26T05:24:28.528Z,1592.00
2022-08-26T05:25:32.932Z,1704.00
2022-08-26T05:26:37.309Z,1688.00
2022-08-26T05:27:41.737Z,1784.00
2022-08-26T05:28:46.115Z,1856.00
2022-08-26T05:29:54.549Z,1900.00
2022-08-26T05:30:54.964Z,1824.00
2022-08-26T05:32:01.192Z,1856.00
2022-08-26T05:33:05.587Z,1892.00
2022-08-26T05:34:10.140Z,1964.00
2022-08-26T05:36:40.260Z,2084.00
2022-08-26T05:37:44.755Z,2124.00
2022-08-26T05:38:57.814Z,2132.00
2022-08-26T05:40:02.371Z,2160.00
2022-08-26T05:41:06.817Z,2164.00
2022-08-26T05:42:11.317Z,2200.00
2022-08-26T05:43:15.768Z,2288.00
2022-08-26T05:44:20.376Z,2384.00
2022-08-26T05:45:24.870Z,2476.00
